createdAt,value
2022-09-28T00:01:09.745Z,15.80
2022-09-28T00:03:37.313Z,15.60
2022-09-28T00:06:06.069Z,15.60
2022-09-28T00:08:34.077Z,15.50
2022-09-28T00:11:02.322Z,15.30
2022-09-28T00:13:31.963Z,15.20
2022-09-28T00:16:02.484Z,15.10
2022-09-28T00:18:30.084Z,15.10
2022-09-28T00:21:17.604Z,15.20
2022-09-28T00:24:03.810Z,15.30
2022-09-28T00:26:32.468Z,15.30
2022-09-28T00:29:00.972Z,15.40
2022-09-28T00:31:30.307Z,15.30
2022-09-28T00:33:57.941Z,15.20
2022-09-28T00:36:27.224Z,15.10
2022-09-28T00:38:56.674Z,15.30
2022-09-28T00:41:25.473Z,15.20
2022-09-28T00:43:53.692Z,15.20
2022-09-28T00:46:21.148Z,15.20
2022-09-28T00:48:55.217Z,15.30
2022-09-28T00:51:23.547Z,15.20
2022-09-28T00:53:51.269Z,15.20
2022-09-28T00:56:20.672Z,15.10
2022-09-28T00:58:50.682Z,15.00
2022-09-28T01:01:18.632Z,15.10
2022-09-28T01:03:48.902Z,15.00
2022-09-28T01:06:24.120Z,15.00
2022-09-28T01:08:52.463Z,14.90
2022-09-28T01:11:20.251Z,14.70
2022-09-28T01:13:50.230Z,14.60
2022-09-28T01:16:34.303Z,14.80
2022-09-28T01:19:17.943Z,14.90
2022-09-28T01:22:04.607Z,14.90
2022-09-28T01:24:35.306Z,14.80
2022-09-28T01:27:25.283Z,14.70
2022-09-28T01:29:57.718Z,14.60
2022-09-28T01:32:35.088Z,14.50
2022-09-28T01:35:02.619Z,14.40
2022-09-28T01:37:40.260Z,14.20
2022-09-28T01:40:09.678Z,14.10
2022-09-28T01:42:38.597Z,14.10
2022-09-28T01:45:08.137Z,14.00
2022-09-28T01:47:38.086Z,14.10
2022-09-28T01:50:11.276Z,14.30
2022-09-28T01:52:47.032Z,14.30
2022-09-28T01:55:19.302Z,14.50
2022-09-28T01:58:09.405Z,14.50
2022-09-28T02:00:38.925Z,14.50
2022-09-28T02:03:17.782Z,14.60
2022-09-28T02:05:55.830Z,14.60
2022-09-28T02:08:32.942Z,14.60
2022-09-28T02:11:03.582Z,14.70
2022-09-28T02:13:43.377Z,14.70
2022-09-28T02:16:24.251Z,14.70
2022-09-28T02:18:52.247Z,14.80
2022-09-28T02:21:27.349Z,15.00
2022-09-28T02:24:02.379Z,15.00
2022-09-28T02:26:32.521Z,15.10
2022-09-28T02:29:00.204Z,15.00
2022-09-28T02:31:28.182Z,14.80
2022-09-28T02:33:57.153Z,14.90
2022-09-28T02:36:28.692Z,14.90
2022-09-28T02:38:57.480Z,14.90
2022-09-28T02:41:31.954Z,14.70
2022-09-28T02:43:59.519Z,14.80
2022-09-28T02:46:30.290Z,14.70
2022-09-28T02:49:24.411Z,14.60
2022-09-28T02:52:11.856Z,14.70
2022-09-28T02:55:03.529Z,14.60
2022-09-28T02:57:47.113Z,14.70
2022-09-28T03:00:19.446Z,14.70
2022-09-28T03:03:07.564Z,14.70
2022-09-28T03:05:47.767Z,14.90
2022-09-28T03:08:15.454Z,15.00
2022-09-28T03:10:47.035Z,15.00
2022-09-28T03:13:16.696Z,15.20
2022-09-28T03:15:48.575Z,15.30
2022-09-28T03:18:18.151Z,15.30
2022-09-28T03:20:45.761Z,15.40
2022-09-28T03:23:24.239Z,15.50
2022-09-28T03:25:52.981Z,15.50
2022-09-28T03:28:21.683Z,15.50
2022-09-28T03:30:50.301Z,15.50
2022-09-28T03:33:19.924Z,15.50
2022-09-28T03:35:48.394Z,15.60
2022-09-28T03:38:18.354Z,15.50
2022-09-28T03:40:53.798Z,15.60
2022-09-28T03:43:21.788Z,15.50
2022-09-28T03:45:56.670Z,15.50
2022-09-28T03:48:28.815Z,15.60
2022-09-28T03:51:00.714Z,15.50
2022-09-28T03:53:29.891Z,15.50
2022-09-28T03:56:02.121Z,15.50
2022-09-28T03:58:30.271Z,15.40
2022-09-28T04:01:02.045Z,15.40
2022-09-28T04:03:29.672Z,15.50
2022-09-28T04:05:57.680Z,15.50
2022-09-28T04:08:25.662Z,15.40
2022-09-28T04:10:57.974Z,15.40
2022-09-28T04:13:25.898Z,15.40
2022-09-28T04:15:54.449Z,15.50
2022-09-28T04:18:22.542Z,15.40
2022-09-28T04:21:14.330Z,15.30
2022-09-28T04:23:47.417Z,15.30
2022-09-28T04:26:22.688Z,15.30
2022-09-28T04:29:09.003Z,15.30
2022-09-28T04:31:42.185Z,15.20
2022-09-28T04:34:11.824Z,15.10
2022-09-28T04:36:40.308Z,15.10
2022-09-28T04:39:07.983Z,15.10
2022-09-28T04:41:35.622Z,15.10
2022-09-28T04:44:03.269Z,15.10
2022-09-28T04:46:31.256Z,15.10
2022-09-28T04:49:18.901Z,15.10
2022-09-28T04:52:05.197Z,15.20
2022-09-28T04:54:34.451Z,15.20
2022-09-28T04:57:02.228Z,15.20
2022-09-28T04:59:30.073Z,15.30
2022-09-28T05:01:57.853Z,15.30
2022-09-28T05:04:44.204Z,15.20
2022-09-28T05:07:11.629Z,15.30
2022-09-28T05:09:39.547Z,15.30
2022-09-28T05:12:08.413Z,15.30
2022-09-28T05:14:36.335Z,15.30
2022-09-28T05:17:05.040Z,15.40
2022-09-28T05:19:47.770Z,15.40
2022-09-28T05:22:16.078Z,15.40
2022-09-28T05:24:47.089Z,15.40
2022-09-28T05:27:15.265Z,15.40
2022-09-28T05:29:45.833Z,15.30
2022-09-28T05:32:45.869Z,15.40
2022-09-28T05:35:27.958Z,15.50
2022-09-28T05:37:55.734Z,15.50
2022-09-28T05:40:23.473Z,15.50
2022-09-28T05:42:51.269Z,15.60
2022-09-28T05:45:18.874Z,15.60
2022-09-28T05:47:46.592Z,15.60
2022-09-28T05:50:16.812Z,15.50
2022-09-28T05:52:44.887Z,15.50
2022-09-28T05:55:13.621Z,15.60
2022-09-28T05:57:42.683Z,15.60
2022-09-28T06:00:10.608Z,15.60
2022-09-28T06:02:41.945Z,15.70
2022-09-28T06:05:12.209Z,15.70
2022-09-28T06:07:40.064Z,15.70
2022-09-28T06:10:07.961Z,15.70
2022-09-28T06:12:42.602Z,15.80
2022-09-28T06:15:15.715Z,15.90
2022-09-28T06:17:44.107Z,15.80
2022-09-28T06:20:41.906Z,15.90
2022-09-28T06:23:14.446Z,15.90
2022-09-28T06:25:42.058Z,16.00
2022-09-28T06:28:14.076Z,16.00
2022-09-28T06:30:42.616Z,16.10
2022-09-28T06:33:14.214Z,16.10
2022-09-28T06:35:42.590Z,16.10
2022-09-28T06:38:10.497Z,16.20
2022-09-28T06:40:38.611Z,16.30
2022-09-28T06:43:10.419Z,16.30
2022-09-28T06:46:16.274Z,16.30
2022-09-28T06:49:03.593Z,16.40
2022-09-28T06:51:53.668Z,16.40
2022-09-28T06:54:39.889Z,16.50
2022-09-28T06:57:21.949Z,16.50
2022-09-28T06:59:49.622Z,16.50
2022-09-28T07:02:17.265Z,16.60
2022-09-28T07:05:06.405Z,16.50
2022-09-28T07:07:55.470Z,16.60
2022-09-28T07:10:58.968Z,16.60
2022-09-28T07:13:50.574Z,16.60
2022-09-28T07:16:25.672Z,16.80
2022-09-28T07:18:55.097Z,16.80
2022-09-28T07:21:29.833Z,16.80
2022-09-28T07:24:00.776Z,16.90
2022-09-28T07:26:57.150Z,16.90
2022-09-28T07:29:36.334Z,17.00
2022-09-28T07:32:23.717Z,17.00
2022-09-28T07:35:15.893Z,17.10
2022-09-28T07:37:48.122Z,17.20
2022-09-28T07:40:34.185Z,17.20
2022-09-28T07:43:06.004Z,17.40
2022-09-28T07:45:38.700Z,17.50
2022-09-28T07:48:06.605Z,17.60
2022-09-28T07:51:12.936Z,17.70
2022-09-28T07:53:43.337Z,17.80
2022-09-28T07:56:29.747Z,17.90
2022-09-28T07:59:18.190Z,17.90
2022-09-28T08:02:06.383Z,18.00
2022-09-28T08:04:34.423Z,18.00
2022-09-28T08:07:03.294Z,18.00
2022-09-28T08:09:31.539Z,17.90
2022-09-28T08:12:19.899Z,18.00
2022-09-28T08:15:25.952Z,18.10
2022-09-28T08:18:02.028Z,18.10
2022-09-28T08:20:51.658Z,18.20
2022-09-28T08:23:20.525Z,18.20
2022-09-28T08:25:49.528Z,18.30
2022-09-28T08:28:17.835Z,18.20
2022-09-28T08:30:47.786Z,18.30
2022-09-28T08:33:34.807Z,18.30
2022-09-28T08:36:24.228Z,18.30
2022-09-28T08:38:55.065Z,18.30
2022-09-28T08:42:12.866Z,18.30
2022-09-28T08:45:08.260Z,18.30
2022-09-28T08:48:14.175Z,18.50
2022-09-28T08:51:22.586Z,18.60
2022-09-28T08:54:26.397Z,18.70
2022-09-28T08:57:11.824Z,18.80
2022-09-28T08:59:39.372Z,18.90
2022-09-28T09:02:12.952Z,19.00
2022-09-28T09:04:40.803Z,19.20
2022-09-28T09:07:29.186Z,19.20
2022-09-28T09:10:05.794Z,19.30
2022-09-28T09:15:24.878Z,19.50
2022-09-28T09:17:58.759Z,19.50
2022-09-28T09:20:37.661Z,19.60
2022-09-28T09:23:20.502Z,19.60
2022-09-28T09:25:55.024Z,19.70
2022-09-28T09:28:38.808Z,19.70
2022-09-28T09:31:22.664Z,19.90
2022-09-28T09:34:10.265Z,19.80
2022-09-28T09:37:08.472Z,19.90
2022-09-28T09:40:01.315Z,19.90
2022-09-28T09:43:02.451Z,20.00
2022-09-28T09:45:41.719Z,20.00
2022-09-28T09:48:38.639Z,20.20
2022-09-28T09:51:16.981Z,20.20
2022-09-28T09:53:50.928Z,20.20
2022-09-28T09:56:22.974Z,20.20
2022-09-28T09:59:24.239Z,20.20
2022-09-28T10:02:31.595Z,20.10
2022-09-28T10:05:11.598Z,20.10
2022-09-28T10:07:46.585Z,20.10
2022-09-28T10:10:21.775Z,20.20
2022-09-28T10:12:51.314Z,20.20
2022-09-28T10:15:26.801Z,20.20
2022-09-28T10:18:12.110Z,20.20
2022-09-28T10:20:58.136Z,20.30
2022-09-28T10:23:43.438Z,20.30
2022-09-28T10:26:16.538Z,20.40
2022-09-28T10:29:01.774Z,20.50
2022-09-28T10:31:35.791Z,20.60
2022-09-28T10:34:07.035Z,20.70
2022-09-28T10:36:46.383Z,20.80
2022-09-28T10:39:45.318Z,20.80
2022-09-28T10:42:18.991Z,20.90
2022-09-28T10:45:00.373Z,20.90
2022-09-28T10:47:39.179Z,20.90
2022-09-28T10:50:24.751Z,20.80
2022-09-28T10:53:31.323Z,20.80
2022-09-28T10:56:20.445Z,20.90
2022-09-28T10:58:53.856Z,20.90
2022-09-28T11:01:34.065Z,21.00
2022-09-28T11:04:05.259Z,21.10
2022-09-28T11:06:36.301Z,21.20
2022-09-28T11:09:23.998Z,21.30
2022-09-28T11:11:53.333Z,21.50
2022-09-28T11:14:42.652Z,21.90
2022-09-28T11:17:27.708Z,22.10
2022-09-28T11:19:56.740Z,22.10
2022-09-28T11:22:24.744Z,22.30
2022-09-28T11:25:15.359Z,22.40
2022-09-28T11:28:04.813Z,22.60
2022-09-28T11:30:51.573Z,22.70
2022-09-28T11:33:33.246Z,22.50
2022-09-28T11:36:27.689Z,22.40
2022-09-28T11:38:58.600Z,22.70
2022-09-28T11:41:53.921Z,22.90
2022-09-28T11:44:35.029Z,22.50
2022-09-28T11:47:17.700Z,22.20
2022-09-28T11:49:53.404Z,22.20
2022-09-28T11:52:25.514Z,22.10
2022-09-28T11:55:10.023Z,21.80
2022-09-28T11:57:41.959Z,21.90
2022-09-28T12:00:36.911Z,22.00
2022-09-28T12:03:15.748Z,22.20
2022-09-28T12:05:51.935Z,22.60
2022-09-28T12:08:41.890Z,22.90
2022-09-28T12:11:15.734Z,23.00
2022-09-28T12:14:04.503Z,22.90
2022-09-28T12:19:28.322Z,22.60
2022-09-28T12:21:59.991Z,22.80
2022-09-28T12:24:45.441Z,22.80
2022-09-28T12:27:16.448Z,23.00
2022-09-28T12:29:51.183Z,22.80
2022-09-28T12:32:39.481Z,23.00
2022-09-28T12:35:21.487Z,23.10
2022-09-28T12:37:59.938Z,23.30
2022-09-28T12:41:00.172Z,23.30
2022-09-28T12:43:40.811Z,23.30
2022-09-28T12:46:14.393Z,23.00
2022-09-28T12:50:01.931Z,22.80
2022-09-28T12:52:25.221Z,22.80
2022-09-28T12:54:55.778Z,22.80
2022-09-28T12:57:42.303Z,22.90
2022-09-28T13:00:23.659Z,22.90
2022-09-28T13:02:51.262Z,23.10
2022-09-28T13:05:37.696Z,23.10
2022-09-28T13:08:07.750Z,23.20
2022-09-28T13:10:46.569Z,23.20
2022-09-28T13:13:32.864Z,23.40
2022-09-28T13:16:00.318Z,23.60
2022-09-28T13:18:30.831Z,23.50
2022-09-28T13:20:58.342Z,23.20
2022-09-28T13:23:27.969Z,22.90
2022-09-28T13:25:59.397Z,22.80
2022-09-28T13:28:29.241Z,22.60
2022-09-28T13:33:45.371Z,22.50
2022-09-28T13:36:39.282Z,22.40
2022-09-28T13:39:26.693Z,22.30
2022-09-28T13:41:56.140Z,22.20
2022-09-28T13:44:31.645Z,22.20
2022-09-28T13:47:08.677Z,22.30
2022-09-28T13:49:54.925Z,22.30
2022-09-28T13:52:57.968Z,22.30
2022-09-28T13:55:25.592Z,22.40
2022-09-28T13:58:01.568Z,22.50
2022-09-28T14:00:31.308Z,22.60
2022-09-28T14:03:17.522Z,22.70
2022-09-28T14:06:00.871Z,22.60
2022-09-28T14:08:31.606Z,22.60
2022-09-28T14:11:17.968Z,22.70
2022-09-28T14:13:45.550Z,22.60
2022-09-28T14:16:19.230Z,22.60
2022-09-28T14:19:01.970Z,22.60
2022-09-28T14:21:44.840Z,22.60
2022-09-28T14:24:12.329Z,22.50
2022-09-28T14:26:42.802Z,22.30
2022-09-28T14:29:28.934Z,22.50
2022-09-28T14:31:58.392Z,22.70
2022-09-28T14:34:30.159Z,22.80
2022-09-28T14:37:16.375Z,22.80
2022-09-28T14:40:06.095Z,22.80
2022-09-28T14:42:33.895Z,22.60
2022-09-28T14:45:06.795Z,22.40
2022-09-28T14:47:40.977Z,22.40
2022-09-28T14:50:20.461Z,22.40
2022-09-28T14:52:50.875Z,22.20
2022-09-28T14:55:21.573Z,22.10
2022-09-28T14:57:55.382Z,22.20
2022-09-28T15:00:24.592Z,22.20
2022-09-28T15:02:54.327Z,22.20
2022-09-28T15:05:24.462Z,22.10
2022-09-28T15:07:53.122Z,22.00
2022-09-28T15:10:38.125Z,22.00
2022-09-28T15:13:14.354Z,21.90
2022-09-28T15:15:43.814Z,21.90
2022-09-28T15:18:30.012Z,21.90
2022-09-28T15:20:57.980Z,21.90
2022-09-28T15:23:27.123Z,21.90
2022-09-28T15:25:55.461Z,21.70
2022-09-28T15:28:24.080Z,21.50
2022-09-28T15:30:52.179Z,21.50
2022-09-28T15:33:45.169Z,21.50
2022-09-28T15:36:16.870Z,21.60
2022-09-28T15:38:46.142Z,21.50
2022-09-28T15:41:13.628Z,21.60
2022-09-28T15:43:41.628Z,21.60
2022-09-28T15:46:18.771Z,21.60
2022-09-28T15:48:52.878Z,21.60
2022-09-28T15:51:21.536Z,21.50
2022-09-28T15:53:56.488Z,21.50
2022-09-28T15:56:24.254Z,21.20
2022-09-28T15:59:13.413Z,21.10
2022-09-28T16:01:42.447Z,21.10
2022-09-28T16:04:28.824Z,20.90
2022-09-28T16:07:15.357Z,20.90
2022-09-28T16:09:55.521Z,20.80
2022-09-28T16:12:26.153Z,20.70
2022-09-28T16:14:56.013Z,20.70
2022-09-28T16:17:33.066Z,20.70
2022-09-28T16:20:17.671Z,20.70
2022-09-28T16:22:46.341Z,20.60
2022-09-28T16:25:20.484Z,20.60
2022-09-28T16:27:48.614Z,20.50
2022-09-28T16:30:16.113Z,20.40
2022-09-28T16:32:50.288Z,20.30
2022-09-28T16:35:19.975Z,20.30
2022-09-28T16:37:49.791Z,20.20
2022-09-28T16:40:17.472Z,20.10
2022-09-28T16:42:49.102Z,20.10
2022-09-28T16:45:19.958Z,20.00
2022-09-28T16:47:53.182Z,19.90
2022-09-28T16:50:21.874Z,19.90
2022-09-28T16:53:08.645Z,19.80
2022-09-28T16:55:41.450Z,19.80
2022-09-28T16:58:09.125Z,19.80
2022-09-28T17:00:36.791Z,19.70
2022-09-28T17:03:11.708Z,19.80
2022-09-28T17:05:40.401Z,19.80
2022-09-28T17:08:11.491Z,19.70
2022-09-28T17:11:09.691Z,19.70
2022-09-28T17:13:34.086Z,19.70
2022-09-28T17:16:09.078Z,19.60
2022-09-28T17:18:40.243Z,19.60
2022-09-28T17:21:11.490Z,19.50
2022-09-28T17:23:39.190Z,19.50
2022-09-28T17:26:06.950Z,19.50
2022-09-28T17:28:38.060Z,19.50
2022-09-28T17:31:07.861Z,19.40
2022-09-28T17:33:37.015Z,19.40
2022-09-28T17:36:05.405Z,19.40
2022-09-28T17:38:36.107Z,19.30
2022-09-28T17:41:05.826Z,19.30
2022-09-28T17:43:35.973Z,19.20
2022-09-28T17:46:10.957Z,19.10
2022-09-28T17:48:41.116Z,19.10
2022-09-28T17:51:09.905Z,19.10
2022-09-28T17:53:38.656Z,19.10
2022-09-28T17:56:07.024Z,19.10
2022-09-28T17:58:36.442Z,19.00
2022-09-28T18:01:06.284Z,18.90
2022-09-28T18:03:33.814Z,18.90
2022-09-28T18:06:05.439Z,18.90
2022-09-28T18:08:33.835Z,18.90
2022-09-28T18:11:01.919Z,18.90
2022-09-28T18:13:31.220Z,18.80
2022-09-28T18:15:59.831Z,18.70
2022-09-28T18:18:29.500Z,18.80
2022-09-28T18:20:58.593Z,18.70
2022-09-28T18:23:28.432Z,18.70
2022-09-28T18:25:57.680Z,18.70
2022-09-28T18:28:26.425Z,18.60
2022-09-28T18:30:54.012Z,18.60
2022-09-28T18:33:22.035Z,18.60
2022-09-28T18:35:54.557Z,18.60
2022-09-28T18:38:22.939Z,18.60
2022-09-28T18:40:53.681Z,18.50
2022-09-28T18:43:21.257Z,18.50
2022-09-28T18:45:50.529Z,18.60
2022-09-28T18:48:18.564Z,18.50
2022-09-28T18:50:46.630Z,18.40
2022-09-28T18:53:16.589Z,18.20
2022-09-28T18:55:45.494Z,18.20
2022-09-28T18:58:17.210Z,18.20
2022-09-28T19:00:45.007Z,18.20
2022-09-28T19:03:16.233Z,18.20
2022-09-28T19:05:46.199Z,18.10
2022-09-28T19:08:14.829Z,18.10
2022-09-28T19:10:44.859Z,18.00
2022-09-28T19:13:12.343Z,17.90
2022-09-28T19:15:42.254Z,17.90
2022-09-28T19:18:10.794Z,17.80
2022-09-28T19:20:40.193Z,17.70
2022-09-28T19:23:09.503Z,17.70
2022-09-28T19:25:37.113Z,17.60
2022-09-28T19:28:05.199Z,17.30
2022-09-28T19:30:32.955Z,17.20
2022-09-28T19:33:02.198Z,17.10
2022-09-28T19:35:30.291Z,17.20
2022-09-28T19:37:58.325Z,17.30
2022-09-28T19:40:26.628Z,17.30
2022-09-28T19:42:54.863Z,17.40
2022-09-28T19:45:23.761Z,17.30
2022-09-28T19:47:54.183Z,17.30
2022-09-28T19:50:24.613Z,17.30
2022-09-28T19:52:53.440Z,17.20
2022-09-28T19:55:23.059Z,17.10
2022-09-28T19:57:52.282Z,16.80
2022-09-28T20:00:22.239Z,16.70
2022-09-28T20:02:50.465Z,16.60
2022-09-28T20:05:20.553Z,16.60
2022-09-28T20:07:49.326Z,16.70
2022-09-28T20:10:19.555Z,16.70
2022-09-28T20:12:49.049Z,17.00
2022-09-28T20:15:17.237Z,16.90
2022-09-28T20:17:45.908Z,16.90
2022-09-28T20:20:13.993Z,16.80
2022-09-28T20:22:43.777Z,16.80
2022-09-28T20:25:12.455Z,16.60
2022-09-28T20:27:40.137Z,16.60
2022-09-28T20:30:09.561Z,16.70
2022-09-28T20:32:37.703Z,16.90
2022-09-28T20:35:07.079Z,16.80
2022-09-28T20:37:35.559Z,16.60
2022-09-28T20:40:05.181Z,16.60
2022-09-28T20:42:34.827Z,16.60
2022-09-28T20:45:02.362Z,16.70
2022-09-28T20:47:31.979Z,16.70
2022-09-28T20:50:00.122Z,16.80
2022-09-28T20:52:29.884Z,16.90
2022-09-28T20:54:57.602Z,16.70
2022-09-28T20:57:26.302Z,16.80
2022-09-28T20:59:55.954Z,16.60
2022-09-28T21:02:24.056Z,16.50
2022-09-28T21:04:52.744Z,16.40
2022-09-28T21:07:20.808Z,16.30
2022-09-28T21:09:50.155Z,16.30
2022-09-28T21:12:19.425Z,16.20
2022-09-28T21:14:47.073Z,16.30
2022-09-28T21:17:15.582Z,16.40
2022-09-28T21:19:43.669Z,16.30
2022-09-28T21:22:12.077Z,16.30
2022-09-28T21:24:41.099Z,16.20
2022-09-28T21:27:08.595Z,16.30
2022-09-28T21:29:38.145Z,16.30
2022-09-28T21:32:06.295Z,16.40
2022-09-28T21:34:36.281Z,16.40
2022-09-28T21:37:04.460Z,16.40
2022-09-28T21:39:32.431Z,16.40
2022-09-28T21:42:01.974Z,16.60
2022-09-28T21:44:32.278Z,16.70
2022-09-28T21:47:00.907Z,16.70
2022-09-28T21:49:30.864Z,16.50
2022-09-28T21:51:58.355Z,16.40
2022-09-28T21:54:26.228Z,16.40
2022-09-28T21:56:54.395Z,16.20
2022-09-28T21:59:22.054Z,16.10
2022-09-28T22:01:49.704Z,16.00
2022-09-28T22:04:17.405Z,15.90
2022-09-28T22:06:45.138Z,15.90
2022-09-28T22:09:12.615Z,16.00
2022-09-28T22:11:40.107Z,16.00
2022-09-28T22:14:07.643Z,16.00
2022-09-28T22:16:35.155Z,15.90
2022-09-28T22:19:02.789Z,16.00
2022-09-28T22:21:32.829Z,16.00
2022-09-28T22:24:04.572Z,16.10
2022-09-28T22:26:33.507Z,16.20
2022-09-28T22:29:05.518Z,16.00
2022-09-28T22:31:34.366Z,15.80
2022-09-28T22:34:02.127Z,15.70
2022-09-28T22:36:29.938Z,15.90
2022-09-28T22:38:58.045Z,16.10
2022-09-28T22:41:25.733Z,16.20
2022-09-28T22:43:54.067Z,16.20
2022-09-28T22:46:26.047Z,16.20
2022-09-28T22:48:54.936Z,16.20
2022-09-28T22:51:23.320Z,16.10
2022-09-28T22:53:50.842Z,16.00
2022-09-28T22:56:19.180Z,15.80
2022-09-28T22:58:47.110Z,15.60
2022-09-28T23:01:14.775Z,15.90
2022-09-28T23:03:43.054Z,15.90
2022-09-28T23:06:11.325Z,15.80
2022-09-28T23:08:39.182Z,15.90
2022-09-28T23:11:07.241Z,15.80
2022-09-28T23:13:35.406Z,15.70
2022-09-28T23:16:04.463Z,15.70
2022-09-28T23:18:34.436Z,15.70
2022-09-28T23:21:03.279Z,15.70
2022-09-28T23:23:31.053Z,15.60
2022-09-28T23:25:58.779Z,15.50
2022-09-28T23:28:26.734Z,15.50
2022-09-28T23:30:54.433Z,15.40
2022-09-28T23:33:22.509Z,15.10
2022-09-28T23:35:50.059Z,15.00
2022-09-28T23:38:18.462Z,14.90
2022-09-28T23:40:46.611Z,15.00
2022-09-28T23:43:14.635Z,15.10
2022-09-28T23:45:45.678Z,15.40
2022-09-28T23:48:15.229Z,15.50
2022-09-28T23:50:43.776Z,15.40
2022-09-28T23:53:12.462Z,15.40
2022-09-28T23:55:40.444Z,15.40
2022-09-28T23:58:08.003Z,15.40
